sensor_id;sensor_type;location;lat;lon;timestamp;pressure;altitude;pressure_sealevel;temperature;humidity
55466;BME280;41329;41.594;23.810;2023-06-26T00:02:11;94932.16;;;19.84;73.32
55466;BME280;41329;41.594;23.810;2023-06-26T00:04:37;94928.13;;;19.85;73.53
55466;BME280;41329;41.594;23.810;2023-06-26T00:07:05;94918.19;;;19.80;73.43
55466;BME280;41329;41.594;23.810;2023-06-26T00:09:32;94933.41;;;19.83;73.68
55466;BME280;41329;41.594;23.810;2023-06-26T00:11:57;94927.84;;;19.79;73.70
55466;BME280;41329;41.594;23.810;2023-06-26T00:14:24;94921.97;;;19.74;73.19
55466;BME280;41329;41.594;23.810;2023-06-26T00:16:51;94928.72;;;19.76;73.00
55466;BME280;41329;41.594;23.810;2023-06-26T00:19:16;94922.19;;;19.67;73.11
55466;BME280;41329;41.594;23.810;2023-06-26T00:21:42;94935.69;;;19.72;73.48
55466;BME280;41329;41.594;23.810;2023-06-26T00:24:16;94877.97;;;19.23;73.35
55466;BME280;41329;41.594;23.810;2023-06-26T00:26:41;94941.13;;;19.63;74.11
55466;BME280;41329;41.594;23.810;2023-06-26T00:29:07;94939.91;;;19.64;74.14
55466;BME280;41329;41.594;23.810;2023-06-26T00:31:32;94929.75;;;19.54;74.10
55466;BME280;41329;41.594;23.810;2023-06-26T00:33:57;94936.75;;;19.62;74.69
55466;BME280;41329;41.594;23.810;2023-06-26T00:36:23;94935.53;;;19.63;74.41
55466;BME280;41329;41.594;23.810;2023-06-26T00:38:49;94932.28;;;19.64;74.12
55466;BME280;41329;41.594;23.810;2023-06-26T00:41:14;94937.78;;;19.68;74.17
55466;BME280;41329;41.594;23.810;2023-06-26T00:43:40;94937.34;;;19.69;73.86
55466;BME280;41329;41.594;23.810;2023-06-26T00:46:09;94904.75;;;19.43;73.60
55466;BME280;41329;41.594;23.810;2023-06-26T00:48:34;94937.78;;;19.68;73.58
55466;BME280;41329;41.594;23.810;2023-06-26T00:51:00;94927.63;;;19.58;73.81
55466;BME280;41329;41.594;23.810;2023-06-26T00:53:25;94913.78;;;19.51;74.05
55466;BME280;41329;41.594;23.810;2023-06-26T00:55:51;94931.22;;;19.58;74.27
55466;BME280;41329;41.594;23.810;2023-06-26T00:58:16;94928.84;;;19.41;74.84
55466;BME280;41329;41.594;23.810;2023-06-26T01:00:42;94926.06;;;19.41;74.91
55466;BME280;41329;41.594;23.810;2023-06-26T01:03:11;94935.50;;;19.47;74.60
55466;BME280;41329;41.594;23.810;2023-06-26T01:05:36;94931.66;;;19.41;75.11
55466;BME280;41329;41.594;23.810;2023-06-26T01:08:03;94936.81;;;19.42;75.89
55466;BME280;41329;41.594;23.810;2023-06-26T01:10:30;94932.09;;;19.39;75.54
55466;BME280;41329;41.594;23.810;2023-06-26T01:12:57;94928.06;;;19.40;74.75
55466;BME280;41329;41.594;23.810;2023-06-26T01:15:23;94928.84;;;19.41;74.86
55466;BME280;41329;41.594;23.810;2023-06-26T01:17:49;94924.44;;;19.40;74.70
55466;BME280;41329;41.594;23.810;2023-06-26T01:20:15;94918.06;;;19.39;75.00
55466;BME280;41329;41.594;23.810;2023-06-26T01:28:07;94912.47;;;19.39;74.59
55466;BME280;41329;41.594;23.810;2023-06-26T01:30:37;94917.63;;;19.41;74.34
55466;BME280;41329;41.594;23.810;2023-06-26T01:33:03;94918.50;;;19.38;73.81
55466;BME280;41329;41.594;23.810;2023-06-26T01:35:29;94903.50;;;19.28;74.20
55466;BME280;41329;41.594;23.810;2023-06-26T01:38:14;94904.63;;;19.31;74.10
55466;BME280;41329;41.594;23.810;2023-06-26T01:40:40;94891.22;;;19.22;74.82
55466;BME280;41329;41.594;23.810;2023-06-26T01:43:07;94904.31;;;19.29;74.12
55466;BME280;41329;41.594;23.810;2023-06-26T01:45:36;94912.00;;;19.25;73.81
55466;BME280;41329;41.594;23.810;2023-06-26T01:48:04;94900.22;;;19.14;74.12
55466;BME280;41329;41.594;23.810;2023-06-26T01:50:33;94899.78;;;19.15;74.44
55466;BME280;41329;41.594;23.810;2023-06-26T01:53:04;94900.22;;;19.14;75.25
55466;BME280;41329;41.594;23.810;2023-06-26T01:55:43;94905.81;;;19.14;75.54
55466;BME280;41329;41.594;23.810;2023-06-26T01:58:13;94915.81;;;19.15;75.62
55466;BME280;41329;41.594;23.810;2023-06-26T02:00:40;94891.25;;;19.03;76.37
55466;BME280;41329;41.594;23.810;2023-06-26T02:03:05;94899.41;;;19.13;76.18
55466;BME280;41329;41.594;23.810;2023-06-26T02:05:32;94892.66;;;19.11;76.60
55466;BME280;41329;41.594;23.810;2023-06-26T02:07:58;94900.75;;;19.09;76.25
55466;BME280;41329;41.594;23.810;2023-06-26T02:10:23;94892.91;;;19.00;76.25
55466;BME280;41329;41.594;23.810;2023-06-26T02:12:49;94915.81;;;19.15;76.12
55466;BME280;41329;41.594;23.810;2023-06-26T02:15:14;94899.88;;;19.12;75.93
55466;BME280;41329;41.594;23.810;2023-06-26T02:17:39;94889.97;;;19.07;75.71
55466;BME280;41329;41.594;23.810;2023-06-26T02:20:05;94893.13;;;19.09;76.00
55466;BME280;41329;41.594;23.810;2023-06-26T02:22:31;94900.06;;;19.21;76.16
55466;BME280;41329;41.594;23.810;2023-06-26T02:24:56;94898.03;;;19.21;76.03
55466;BME280;41329;41.594;23.810;2023-06-26T02:27:22;94896.38;;;19.24;76.07
55466;BME280;41329;41.594;23.810;2023-06-26T02:29:47;94900.78;;;19.25;76.02
55466;BME280;41329;41.594;23.810;2023-06-26T02:32:13;94893.59;;;19.24;76.07
55466;BME280;41329;41.594;23.810;2023-06-26T02:34:38;94891.16;;;19.26;75.98
55466;BME280;41329;41.594;23.810;2023-06-26T02:37:04;94899.13;;;19.27;75.87
55466;BME280;41329;41.594;23.810;2023-06-26T02:39:33;94900.38;;;19.26;75.49
55466;BME280;41329;41.594;23.810;2023-06-26T02:41:58;94859.03;;;18.95;75.51
55466;BME280;41329;41.594;23.810;2023-06-26T02:44:24;94905.59;;;19.24;75.85
55466;BME280;41329;41.594;23.810;2023-06-26T02:46:49;94888.56;;;19.15;76.10
55466;BME280;41329;41.594;23.810;2023-06-26T02:49:14;94911.59;;;19.26;76.24
55466;BME280;41329;41.594;23.810;2023-06-26T02:51:40;94894.28;;;19.12;75.92
55466;BME280;41329;41.594;23.810;2023-06-26T02:54:05;94913.22;;;19.24;75.40
55466;BME280;41329;41.594;23.810;2023-06-26T02:56:30;94929.41;;;19.16;75.59
55466;BME280;41329;41.594;23.810;2023-06-26T02:58:57;94894.53;;;19.01;75.96
55466;BME280;41329;41.594;23.810;2023-06-26T03:01:22;94863.66;;;18.85;76.40
55466;BME280;41329;41.594;23.810;2023-06-26T03:03:48;94891.25;;;19.03;76.71
55466;BME280;41329;41.594;23.810;2023-06-26T03:06:14;94902.31;;;19.10;77.01
55466;BME280;41329;41.594;23.810;2023-06-26T03:08:40;94914.25;;;19.14;77.04
55466;BME280;41329;41.594;23.810;2023-06-26T03:11:06;94912.81;;;19.06;76.97
55466;BME280;41329;41.594;23.810;2023-06-26T03:13:33;94922.38;;;19.08;77.04
55466;BME280;41329;41.594;23.810;2023-06-26T03:15:59;94914.75;;;19.09;76.66
55466;BME280;41329;41.594;23.810;2023-06-26T03:18:24;94914.25;;;19.14;76.77
55466;BME280;41329;41.594;23.810;2023-06-26T03:20:50;94918.63;;;19.15;76.87
55466;BME280;41329;41.594;23.810;2023-06-26T03:23:15;94912.94;;;19.18;77.66
55466;BME280;41329;41.594;23.810;2023-06-26T03:25:40;94921.34;;;19.18;77.46
55466;BME280;41329;41.594;23.810;2023-06-26T03:28:06;94914.16;;;19.17;77.21
55466;BME280;41329;41.594;23.810;2023-06-26T03:30:31;94910.91;;;19.19;77.36
55466;BME280;41329;41.594;23.810;2023-06-26T03:32:57;94918.81;;;19.24;77.22
55466;BME280;41329;41.594;23.810;2023-06-26T03:35:22;94904.78;;;19.08;77.31
55466;BME280;41329;41.594;23.810;2023-06-26T03:37:48;94918.81;;;19.24;77.41
55466;BME280;41329;41.594;23.810;2023-06-26T03:40:14;94898.13;;;19.18;77.79
55466;BME280;41329;41.594;23.810;2023-06-26T03:42:39;94906.84;;;19.23;78.07
55466;BME280;41329;41.594;23.810;2023-06-26T03:45:05;94917.69;;;19.37;77.68
55466;BME280;41329;41.594;23.810;2023-06-26T03:47:31;94912.09;;;19.37;77.65
55466;BME280;41329;41.594;23.810;2023-06-26T03:49:56;94920.78;;;19.43;77.27
55466;BME280;41329;41.594;23.810;2023-06-26T03:52:22;94920.34;;;19.44;77.39
55466;BME280;41329;41.594;23.810;2023-06-26T03:54:47;94915.50;;;19.45;77.45
55466;BME280;41329;41.594;23.810;2023-06-26T03:57:14;94910.16;;;19.50;77.56
55466;BME280;41329;41.594;23.810;2023-06-26T03:59:39;94896.22;;;19.47;77.49
55466;BME280;41329;41.594;23.810;2023-06-26T04:02:04;94902.28;;;19.45;77.55
55466;BME280;41329;41.594;23.810;2023-06-26T04:04:30;94908.97;;;19.51;77.58
55466;BME280;41329;41.594;23.810;2023-06-26T04:06:55;94904.13;;;19.52;77.69
55466;BME280;41329;41.594;23.810;2023-06-26T04:09:21;94907.63;;;19.40;78.11
55466;BME280;41329;41.594;23.810;2023-06-26T04:11:46;94902.81;;;19.40;78.36
55466;BME280;41329;41.594;23.810;2023-06-26T04:14:12;94917.38;;;19.51;78.51
55466;BME280;41329;41.594;23.810;2023-06-26T04:16:38;94913.88;;;19.47;78.60
55466;BME280;41329;41.594;23.810;2023-06-26T04:19:03;94912.47;;;19.39;78.70
55466;BME280;41329;41.594;23.810;2023-06-26T04:21:30;94894.78;;;19.07;79.65
55466;BME280;41329;41.594;23.810;2023-06-26T04:23:55;94918.28;;;19.13;80.77
55466;BME280;41329;41.594;23.810;2023-06-26T04:26:21;94888.81;;;19.05;80.55
55466;BME280;41329;41.594;23.810;2023-06-26T04:28:46;94909.91;;;19.29;80.55
55466;BME280;41329;41.594;23.810;2023-06-26T04:31:12;94910.63;;;19.33;79.86
55466;BME280;41329;41.594;23.810;2023-06-26T04:33:37;94911.31;;;19.37;79.68
55466;BME280;41329;41.594;23.810;2023-06-26T04:36:04;94901.28;;;19.20;79.53
55466;BME280;41329;41.594;23.810;2023-06-26T04:38:33;94910.16;;;19.34;79.27
55466;BME280;41329;41.594;23.810;2023-06-26T04:40:59;94900.06;;;19.21;79.54
55466;BME280;41329;41.594;23.810;2023-06-26T04:43:24;94912.53;;;19.36;79.71
55466;BME280;41329;41.594;23.810;2023-06-26T04:45:49;94920.78;;;19.43;79.94
55466;BME280;41329;41.594;23.810;2023-06-26T04:48:15;94899.13;;;19.43;80.29
55466;BME280;41329;41.594;23.810;2023-06-26T04:50:40;94913.75;;;19.67;80.42
55466;BME280;41329;41.594;23.810;2023-06-26T04:53:05;94903.94;;;19.59;79.65
55466;BME280;41329;41.594;23.810;2023-06-26T04:55:31;94909.13;;;19.60;78.82
55466;BME280;41329;41.594;23.810;2023-06-26T04:57:56;94912.09;;;19.69;78.74
55466;BME280;41329;41.594;23.810;2023-06-26T05:00:22;94914.53;;;19.83;79.15
55466;BME280;41329;41.594;23.810;2023-06-26T05:02:50;94917.91;;;19.91;79.68
55466;BME280;41329;41.594;23.810;2023-06-26T05:05:24;94906.34;;;19.89;78.48
55466;BME280;41329;41.594;23.810;2023-06-26T05:07:53;94914.09;;;19.85;78.11
55466;BME280;41329;41.594;23.810;2023-06-26T05:10:19;94918.47;;;19.70;78.82
55466;BME280;41329;41.594;23.810;2023-06-26T05:12:44;94917.16;;;19.74;78.74
55466;BME280;41329;41.594;23.810;2023-06-26T05:15:09;94916.22;;;19.65;79.19
55466;BME280;41329;41.594;23.810;2023-06-26T05:17:35;94929.78;;;19.82;79.13
55466;BME280;41329;41.594;23.810;2023-06-26T05:20:00;94917.84;;;19.94;79.24
55466;BME280;41329;41.594;23.810;2023-06-26T05:22:26;94912.38;;;20.03;79.61
55466;BME280;41329;41.594;23.810;2023-06-26T05:24:53;94912.66;;;20.09;78.92
55466;BME280;41329;41.594;23.810;2023-06-26T05:27:20;94908.50;;;20.13;78.43
55466;BME280;41329;41.594;23.810;2023-06-26T05:29:47;94918.28;;;19.93;79.21
55466;BME280;41329;41.594;23.810;2023-06-26T05:32:15;94910.72;;;20.06;79.00
55466;BME280;41329;41.594;23.810;2023-06-26T05:34:45;94901.34;;;19.96;77.54
55466;BME280;41329;41.594;23.810;2023-06-26T05:37:14;94924.06;;;20.18;77.18
55466;BME280;41329;41.594;23.810;2023-06-26T05:39:41;94916.47;;;20.31;77.25
55466;BME280;41329;41.594;23.810;2023-06-26T05:42:07;94903.16;;;20.19;76.56
55466;BME280;41329;41.594;23.810;2023-06-26T05:44:33;94912.09;;;20.30;77.06
55466;BME280;41329;41.594;23.810;2023-06-26T05:46:58;94917.47;;;20.37;76.94
55466;BME280;41329;41.594;23.810;2023-06-26T05:49:24;94901.53;;;20.34;76.74
55466;BME280;41329;41.594;23.810;2023-06-26T05:51:49;94903.94;;;20.48;76.51
55466;BME280;41329;41.594;23.810;2023-06-26T05:54:15;94917.59;;;20.74;76.97
55466;BME280;41329;41.594;23.810;2023-06-26T05:56:41;94917.16;;;20.88;77.26
55466;BME280;41329;41.594;23.810;2023-06-26T05:59:07;94914.06;;;20.99;76.85
55466;BME280;41329;41.594;23.810;2023-06-26T06:01:33;94916.44;;;21.00;74.91
55466;BME280;41329;41.594;23.810;2023-06-26T06:03:59;94914.31;;;20.92;74.50
55466;BME280;41329;41.594;23.810;2023-06-26T06:06:24;94897.72;;;20.81;75.01
55466;BME280;41329;41.594;23.810;2023-06-26T06:08:50;94917.16;;;20.88;74.94
55466;BME280;41329;41.594;23.810;2023-06-26T06:11:15;94909.00;;;21.06;74.86
55466;BME280;41329;41.594;23.810;2023-06-26T06:13:40;94910.34;;;21.14;74.61
55466;BME280;41329;41.594;23.810;2023-06-26T06:16:06;94895.81;;;20.91;73.18
55466;BME280;41329;41.594;23.810;2023-06-26T06:18:31;94903.97;;;21.14;73.44
55466;BME280;41329;41.594;23.810;2023-06-26T06:20:57;94892.72;;;21.14;73.47
55466;BME280;41329;41.594;23.810;2023-06-26T06:23:22;94909.81;;;21.32;72.71
55466;BME280;41329;41.594;23.810;2023-06-26T06:25:48;94895.41;;;21.30;72.50
55466;BME280;41329;41.594;23.810;2023-06-26T06:28:13;94904.81;;;21.48;73.37
55466;BME280;41329;41.594;23.810;2023-06-26T06:30:41;94890.31;;;21.62;71.86
55466;BME280;41329;41.594;23.810;2023-06-26T06:33:06;94890.97;;;21.66;72.10
55466;BME280;41329;41.594;23.810;2023-06-26T06:35:32;94901.78;;;21.80;71.63
55466;BME280;41329;41.594;23.810;2023-06-26T06:37:57;94891.03;;;21.88;71.25
55466;BME280;41329;41.594;23.810;2023-06-26T06:40:22;94885.84;;;21.99;70.58
55466;BME280;41329;41.594;23.810;2023-06-26T06:42:48;94903.69;;;22.17;70.63
55466;BME280;41329;41.594;23.810;2023-06-26T06:45:13;94896.34;;;22.20;71.01
55466;BME280;41329;41.594;23.810;2023-06-26T06:47:38;94881.28;;;22.14;70.19
55466;BME280;41329;41.594;23.810;2023-06-26T06:50:04;94893.94;;;22.31;70.02
55466;BME280;41329;41.594;23.810;2023-06-26T06:52:39;94895.06;;;22.33;70.58
55466;BME280;41329;41.594;23.810;2023-06-26T06:55:06;94868.50;;;22.22;70.55
55466;BME280;41329;41.594;23.810;2023-06-26T06:57:37;94888.94;;;22.47;70.28
55466;BME280;41329;41.594;23.810;2023-06-26T07:00:08;94879.16;;;22.61;69.71
55466;BME280;41329;41.594;23.810;2023-06-26T07:02:36;94891.00;;;22.77;68.62
55466;BME280;41329;41.594;23.810;2023-06-26T07:05:02;94883.84;;;22.85;68.55
55466;BME280;41329;41.594;23.810;2023-06-26T07:07:30;94874.97;;;22.96;68.23
55466;BME280;41329;41.594;23.810;2023-06-26T07:09:58;94871.25;;;22.99;68.04
55466;BME280;41329;41.594;23.810;2023-06-26T07:12:24;94894.00;;;23.05;68.23
55466;BME280;41329;41.594;23.810;2023-06-26T07:14:49;94859.34;;;23.04;68.02
55466;BME280;41329;41.594;23.810;2023-06-26T07:17:14;94886.75;;;23.25;68.27
55466;BME280;41329;41.594;23.810;2023-06-26T07:19:40;94873.13;;;23.33;66.67
55466;BME280;41329;41.594;23.810;2023-06-26T07:22:05;94871.94;;;23.43;65.76
55466;BME280;41329;41.594;23.810;2023-06-26T07:24:30;94868.16;;;23.46;65.14
55466;BME280;41329;41.594;23.810;2023-06-26T07:26:57;94889.22;;;23.63;65.45
55466;BME280;41329;41.594;23.810;2023-06-26T07:29:22;94875.28;;;23.59;65.25
55466;BME280;41329;41.594;23.810;2023-06-26T07:31:48;94874.75;;;23.43;65.39
55466;BME280;41329;41.594;23.810;2023-06-26T07:34:14;94868.06;;;23.58;64.98
55466;BME280;41329;41.594;23.810;2023-06-26T07:36:39;94886.00;;;23.82;63.98
55466;BME280;41329;41.594;23.810;2023-06-26T07:39:04;94885.44;;;23.96;64.09
55466;BME280;41329;41.594;23.810;2023-06-26T07:41:30;94882.63;;;24.05;63.58
55466;BME280;41329;41.594;23.810;2023-06-26T07:43:57;94871.00;;;24.12;63.62
55466;BME280;41329;41.594;23.810;2023-06-26T07:46:23;94875.25;;;24.35;63.61
55466;BME280;41329;41.594;23.810;2023-06-26T07:48:48;94878.25;;;24.49;64.10
55466;BME280;41329;41.594;23.810;2023-06-26T07:51:14;94876.97;;;24.68;63.47
55466;BME280;41329;41.594;23.810;2023-06-26T07:53:39;94886.25;;;24.78;59.67
55466;BME280;41329;41.594;23.810;2023-06-26T07:56:04;94887.00;;;24.78;60.43
55466;BME280;41329;41.594;23.810;2023-06-26T07:58:30;94871.00;;;24.75;61.73
55466;BME280;41329;41.594;23.810;2023-06-26T08:00:55;94893.44;;;24.97;60.28
55466;BME280;41329;41.594;23.810;2023-06-26T08:03:20;94894.81;;;25.10;59.01
55466;BME280;41329;41.594;23.810;2023-06-26T08:05:46;94888.38;;;25.19;58.40
55466;BME280;41329;41.594;23.810;2023-06-26T08:08:12;94892.84;;;25.43;60.37
55466;BME280;41329;41.594;23.810;2023-06-26T08:10:37;94883.66;;;25.57;58.77
55466;BME280;41329;41.594;23.810;2023-06-26T08:13:02;94890.50;;;25.74;57.50
55466;BME280;41329;41.594;23.810;2023-06-26T08:15:28;94886.38;;;25.84;56.58
55466;BME280;41329;41.594;23.810;2023-06-26T08:17:53;94873.88;;;25.91;56.90
55466;BME280;41329;41.594;23.810;2023-06-26T08:20:18;94886.88;;;26.06;57.37
55466;BME280;41329;41.594;23.810;2023-06-26T08:22:45;94881.75;;;26.19;56.19
55466;BME280;41329;41.594;23.810;2023-06-26T08:25:13;94878.16;;;26.33;55.41
55466;BME280;41329;41.594;23.810;2023-06-26T08:27:38;94866.78;;;26.42;52.72
55466;BME280;41329;41.594;23.810;2023-06-26T08:30:04;94878.88;;;26.43;50.34
55466;BME280;41329;41.594;23.810;2023-06-26T08:32:30;94865.66;;;26.40;51.72
55466;BME280;41329;41.594;23.810;2023-06-26T08:34:55;94868.81;;;26.42;52.94
55466;BME280;41329;41.594;23.810;2023-06-26T08:37:21;94874.97;;;26.40;51.81
55466;BME280;41329;41.594;23.810;2023-06-26T08:39:47;94870.16;;;26.32;51.39
55466;BME280;41329;41.594;23.810;2023-06-26T08:42:13;94869.66;;;26.33;52.25
55466;BME280;41329;41.594;23.810;2023-06-26T08:44:38;94875.88;;;26.46;52.59
55466;BME280;41329;41.594;23.810;2023-06-26T08:47:04;94878.69;;;26.70;51.61
55466;BME280;41329;41.594;23.810;2023-06-26T08:49:37;94836.72;;;26.50;49.33
55466;BME280;41329;41.594;23.810;2023-06-26T08:52:11;94875.19;;;26.75;50.23
55466;BME280;41329;41.594;23.810;2023-06-26T08:54:43;94872.53;;;26.48;49.19
55466;BME280;41329;41.594;23.810;2023-06-26T08:57:10;94869.22;;;26.49;50.31
55466;BME280;41329;41.594;23.810;2023-06-26T08:59:36;94865.66;;;26.25;50.97
55466;BME280;41329;41.594;23.810;2023-06-26T09:02:02;94861.41;;;26.21;51.32
55466;BME280;41329;41.594;23.810;2023-06-26T09:04:28;94864.78;;;26.34;49.32
55466;BME280;41329;41.594;23.810;2023-06-26T09:06:53;94849.81;;;26.33;48.82
55466;BME280;41329;41.594;23.810;2023-06-26T09:09:19;94848.19;;;26.56;48.70
55466;BME280;41329;41.594;23.810;2023-06-26T09:11:45;94856.00;;;26.84;50.22
55466;BME280;41329;41.594;23.810;2023-06-26T09:14:11;94852.75;;;26.91;47.36
55466;BME280;41329;41.594;23.810;2023-06-26T09:16:41;94836.41;;;26.86;47.13
55466;BME280;41329;41.594;23.810;2023-06-26T09:19:13;94847.78;;;27.01;47.20
55466;BME280;41329;41.594;23.810;2023-06-26T09:21:40;94845.16;;;26.97;45.02
55466;BME280;41329;41.594;23.810;2023-06-26T09:24:10;94848.06;;;27.03;47.37
55466;BME280;41329;41.594;23.810;2023-06-26T09:26:37;94819.88;;;26.99;47.18
55466;BME280;41329;41.594;23.810;2023-06-26T09:29:04;94834.44;;;27.07;47.29
55466;BME280;41329;41.594;23.810;2023-06-26T09:31:29;94855.13;;;27.07;47.98
55466;BME280;41329;41.594;23.810;2023-06-26T09:33:58;94854.53;;;27.18;50.21
55466;BME280;41329;41.594;23.810;2023-06-26T09:36:28;94820.06;;;27.10;49.94
55466;BME280;41329;41.594;23.810;2023-06-26T09:38:54;94857.75;;;27.11;47.80
55466;BME280;41329;41.594;23.810;2023-06-26T09:41:19;94821.72;;;26.73;46.89
55466;BME280;41329;41.594;23.810;2023-06-26T09:43:49;94861.00;;;26.75;47.51
55466;BME280;41329;41.594;23.810;2023-06-26T09:46:26;94865.38;;;26.76;47.17
55466;BME280;41329;41.594;23.810;2023-06-26T09:49:18;94874.28;;;26.83;48.77
55466;BME280;41329;41.594;23.810;2023-06-26T09:51:43;94872.25;;;26.84;50.30
55466;BME280;41329;41.594;23.810;2023-06-26T09:54:09;94877.13;;;26.98;51.55
55466;BME280;41329;41.594;23.810;2023-06-26T09:56:35;94876.88;;;27.10;52.70
55466;BME280;41329;41.594;23.810;2023-06-26T09:59:02;94877.47;;;27.14;53.02
55466;BME280;41329;41.594;23.810;2023-06-26T10:01:30;94873.72;;;27.08;53.90
55466;BME280;41329;41.594;23.810;2023-06-26T10:03:56;94876.56;;;27.08;54.88
55466;BME280;41329;41.594;23.810;2023-06-26T10:06:31;94879.13;;;27.06;55.46
55466;BME280;41329;41.594;23.810;2023-06-26T10:08:59;94875.38;;;27.00;56.23
55466;BME280;41329;41.594;23.810;2023-06-26T10:11:32;94872.25;;;26.84;58.44
55466;BME280;41329;41.594;23.810;2023-06-26T10:13:59;94855.41;;;26.66;59.99
55466;BME280;41329;41.594;23.810;2023-06-26T10:16:26;94851.38;;;26.58;58.62
55466;BME280;41329;41.594;23.810;2023-06-26T10:18:56;94812.88;;;26.19;58.73
55466;BME280;41329;41.594;23.810;2023-06-26T10:21:24;94874.13;;;26.49;60.75
55466;BME280;41329;41.594;23.810;2023-06-26T10:23:51;94827.81;;;26.05;62.83
55466;BME280;41329;41.594;23.810;2023-06-26T10:26:20;94857.53;;;26.33;63.56
55466;BME280;41329;41.594;23.810;2023-06-26T10:28:47;94848.75;;;26.45;63.98
55466;BME280;41329;41.594;23.810;2023-06-26T10:31:19;94845.72;;;26.72;65.57
55466;BME280;41329;41.594;23.810;2023-06-26T10:33:46;94852.06;;;26.96;63.02
55466;BME280;41329;41.594;23.810;2023-06-26T10:38:49;94853.16;;;27.42;59.63
55466;BME280;41329;41.594;23.810;2023-06-26T10:41:19;94857.53;;;27.73;58.12
55466;BME280;41329;41.594;23.810;2023-06-26T10:43:45;94849.84;;;27.78;52.79
55466;BME280;41329;41.594;23.810;2023-06-26T10:46:15;94848.91;;;27.82;54.04
55466;BME280;41329;41.594;23.810;2023-06-26T10:49:06;94847.34;;;28.01;51.54
55466;BME280;41329;41.594;23.810;2023-06-26T10:51:37;94849.91;;;27.99;50.02
55466;BME280;41329;41.594;23.810;2023-06-26T10:54:02;94857.78;;;27.74;49.46
55466;BME280;41329;41.594;23.810;2023-06-26T10:56:45;94848.00;;;27.26;53.27
55466;BME280;41329;41.594;23.810;2023-06-26T10:59:13;94867.75;;;27.06;55.33
55466;BME280;41329;41.594;23.810;2023-06-26T11:01:42;94885.78;;;27.03;55.74
55466;BME280;41329;41.594;23.810;2023-06-26T11:04:08;94884.47;;;26.90;56.97
55466;BME280;41329;41.594;23.810;2023-06-26T11:06:36;94885.06;;;26.79;59.43
55466;BME280;41329;41.594;23.810;2023-06-26T11:14:17;94890.97;;;26.29;57.00
55466;BME280;41329;41.594;23.810;2023-06-26T11:16:43;94891.66;;;25.91;56.94
55466;BME280;41329;41.594;23.810;2023-06-26T11:19:09;94906.41;;;25.72;57.92
55466;BME280;41329;41.594;23.810;2023-06-26T11:21:37;94904.69;;;25.33;59.21
55466;BME280;41329;41.594;23.810;2023-06-26T11:24:04;94910.50;;;25.20;59.42
55466;BME280;41329;41.594;23.810;2023-06-26T11:26:40;94907.72;;;25.02;59.45
55466;BME280;41329;41.594;23.810;2023-06-26T11:29:06;94902.44;;;24.77;60.53
55466;BME280;41329;41.594;23.810;2023-06-26T11:31:33;94909.38;;;24.67;60.49
55466;BME280;41329;41.594;23.810;2023-06-26T11:34:01;94896.91;;;24.47;61.70
55466;BME280;41329;41.594;23.810;2023-06-26T11:36:28;94888.59;;;24.34;62.72
55466;BME280;41329;41.594;23.810;2023-06-26T11:38:58;94902.44;;;24.32;63.33
55466;BME280;41329;41.594;23.810;2023-06-26T11:41:26;94896.16;;;24.28;63.41
55466;BME280;41329;41.594;23.810;2023-06-26T11:43:52;94895.66;;;24.21;63.65
55466;BME280;41329;41.594;23.810;2023-06-26T11:46:19;94889.53;;;24.22;64.81
55466;BME280;41329;41.594;23.810;2023-06-26T11:48:45;94887.03;;;24.24;65.62
55466;BME280;41329;41.594;23.810;2023-06-26T11:51:14;94877.75;;;24.24;65.65
55466;BME280;41329;41.594;23.810;2023-06-26T11:53:41;94861.09;;;24.17;66.54
55466;BME280;41329;41.594;23.810;2023-06-26T11:56:08;94884.97;;;24.34;67.90
55466;BME280;41329;41.594;23.810;2023-06-26T11:58:34;94873.22;;;24.26;68.09
55466;BME280;41329;41.594;23.810;2023-06-26T12:00:59;94885.78;;;24.43;68.40
55466;BME280;41329;41.594;23.810;2023-06-26T12:03:25;94892.38;;;24.49;68.92
55466;BME280;41329;41.594;23.810;2023-06-26T12:05:50;94878.56;;;24.60;67.68
55466;BME280;41329;41.594;23.810;2023-06-26T12:08:17;94875.59;;;24.64;66.45
55466;BME280;41329;41.594;23.810;2023-06-26T12:10:44;94876.50;;;24.70;66.53
55466;BME280;41329;41.594;23.810;2023-06-26T12:13:10;94876.03;;;24.80;66.96
55466;BME280;41329;41.594;23.810;2023-06-26T12:15:35;94879.44;;;24.93;68.04
55466;BME280;41329;41.594;23.810;2023-06-26T12:18:08;94868.44;;;25.04;66.14
55466;BME280;41329;41.594;23.810;2023-06-26T12:20:33;94868.03;;;25.20;66.99
55466;BME280;41329;41.594;23.810;2023-06-26T12:22:59;94866.31;;;25.32;64.61
55466;BME280;41329;41.594;23.810;2023-06-26T12:25:24;94866.13;;;25.35;63.74
55466;BME280;41329;41.594;23.810;2023-06-26T12:27:50;94848.19;;;25.38;64.38
55466;BME280;41329;41.594;23.810;2023-06-26T12:30:15;94853.94;;;25.53;63.73
55466;BME280;41329;41.594;23.810;2023-06-26T12:32:44;94867.13;;;25.65;61.68
55466;BME280;41329;41.594;23.810;2023-06-26T12:35:10;94861.13;;;25.63;62.18
55466;BME280;41329;41.594;23.810;2023-06-26T12:37:37;94840.06;;;25.55;60.89
55466;BME280;41329;41.594;23.810;2023-06-26T12:40:16;94841.78;;;25.61;60.62
55466;BME280;41329;41.594;23.810;2023-06-26T12:42:42;94850.81;;;25.74;61.81
55466;BME280;41329;41.594;23.810;2023-06-26T12:45:12;94836.13;;;26.08;65.49
55466;BME280;41329;41.594;23.810;2023-06-26T12:47:38;94837.53;;;26.51;64.18
55466;BME280;41329;41.594;23.810;2023-06-26T12:50:06;94837.97;;;26.87;60.32
55466;BME280;41329;41.594;23.810;2023-06-26T12:52:32;94844.72;;;27.04;55.99
55466;BME280;41329;41.594;23.810;2023-06-26T12:54:58;94833.47;;;27.10;55.08
55466;BME280;41329;41.594;23.810;2023-06-26T12:57:23;94818.19;;;27.07;53.93
55466;BME280;41329;41.594;23.810;2023-06-26T12:59:49;94833.38;;;27.33;54.40
55466;BME280;41329;41.594;23.810;2023-06-26T13:02:14;94813.06;;;27.55;55.35